This is the latest recevied weather packets stored in our database for station/object LU3HGB-WX. If no packets are shown the sender has not sent any weather packets the latest 10 day(s).
| Time | Temp. | Humidity | Pressure | Rain* | Wind** | Luminosity | Snow |
|---|---|---|---|---|---|---|---|
| 1777637261 | 8.89° C | 93% | 1012 hPa | 0 mm | - | 138 W/m² | - |
| 1777636960 | 7.78° C | 95% | 1012 hPa | 0 mm | - | 123 W/m² | - |
| 1777636660 | 7.22° C | 95% | 1012 hPa | 0 mm | - | 109 W/m² | - |
| 1777636359 | 6.11° C | 95% | 1012 hPa | 0 mm | - | 93 W/m² | - |
| 1777636059 | 5.56° C | 95% | 1012 hPa | 0 mm | - | 83 W/m² | - |
| 1777635759 | 5° C | 95% | 1012 hPa | 0 mm | - | 67 W/m² | - |
| 1777635459 | 4.44° C | 95% | 1012 hPa | 0 mm | - | 39 W/m² | - |
| 1777635159 | 4.44° C | 95% | 1012 hPa | 0 mm | - | 32 W/m² | - |
| 1777634860 | 4.44° C | 95% | 1012 hPa | 0 mm | - | 28 W/m² | - |
| 1777634560 | 4.44° C | 95% | 1011 hPa | 0 mm | - | 25 W/m² | - |
| 1777634260 | 4.44° C | 95% | 1011 hPa | 0 mm | - | 22 W/m² | - |
| 1777633960 | 4.44° C | 95% | 1011 hPa | 0 mm | - | 19 W/m² | - |
| 1777633659 | 3.89° C | 95% | 1011 hPa | 0 mm | - | 15 W/m² | - |
| 1777633361 | 3.89° C | 95% | 1011 hPa | 0 mm | - | 11 W/m² | - |
| 1777633059 | 3.89° C | 95% | 1011 hPa | 0 mm | - | 8 W/m² | - |
| 1777632759 | 3.89° C | 95% | 1011 hPa | 0 mm | - | 4 W/m² | - |
| 1777632460 | 4.44° C | 95% | 1011 hPa | 0 mm | - | 2 W/m² | - |
| 1777632159 | 4.44° C | 95% | 1011 hPa | 0 mm | - | 1 W/m² | - |
| 1777631859 | 4.44° C | 95% | 1011 hPa | 0 mm | - | 0 W/m² | - |
| 1777631559 | 4.44° C | 95% | 1011 hPa | 0 mm | - | 0 W/m² | - |
| 1777631261 | 5° C | 95% | 1011 hPa | 0 mm | - | 0 W/m² | - |
| 1777630959 | 4.44° C | 95% | 1011 hPa | 0 mm | - | 0 W/m² | - |
| 1777630660 | 5° C | 95% | 1011 hPa | 0 mm | - | 0 W/m² | - |
| 1777630360 | 5° C | 95% | 1011 hPa | 0 mm | - | 0 W/m² | - |
| 1777630059 | 5° C | 95% | 1011 hPa | 0 mm | - | 0 W/m² | - |
* Rain latest hour (hover to see other rain measurements)
** Current wind speed in m/s (hover to see current wind gust speed)